sensor_id;sensor_type;location;lat;lon;timestamp;pressure;altitude;pressure_sealevel;temperature;humidity
8320;BME280;4197;42.130;24.746;2023-07-13T00:01:09;99522.75;;;25.78;78.42
8320;BME280;4197;42.130;24.746;2023-07-13T00:03:37;99527.22;;;25.76;78.92
8320;BME280;4197;42.130;24.746;2023-07-13T00:06:08;99527.38;;;25.72;79.41
8320;BME280;4197;42.130;24.746;2023-07-13T00:08:37;99528.28;;;25.69;79.43
8320;BME280;4197;42.130;24.746;2023-07-13T00:11:05;99523.94;;;25.68;80.33
8320;BME280;4197;42.130;24.746;2023-07-13T00:13:35;99523.94;;;25.68;80.18
8320;BME280;4197;42.130;24.746;2023-07-13T00:16:06;99525.63;;;25.66;80.20
8320;BME280;4197;42.130;24.746;2023-07-13T00:18:35;99532.09;;;25.63;80.57
8320;BME280;4197;42.130;24.746;2023-07-13T00:21:04;99519.13;;;25.59;80.19
8320;BME280;4197;42.130;24.746;2023-07-13T00:23:33;99521.72;;;25.54;80.61
8320;BME280;4197;42.130;24.746;2023-07-13T00:26:03;99520.66;;;25.60;80.60
8320;BME280;4197;42.130;24.746;2023-07-13T00:28:33;99517.59;;;25.58;80.04
8320;BME280;4197;42.130;24.746;2023-07-13T00:31:03;99510.16;;;25.55;80.60
8320;BME280;4197;42.130;24.746;2023-07-13T00:33:35;99516.00;;;25.57;80.00
8320;BME280;4197;42.130;24.746;2023-07-13T00:36:04;99516.19;;;25.63;79.88
8320;BME280;4197;42.130;24.746;2023-07-13T00:38:32;99511.25;;;25.58;80.75
8320;BME280;4197;42.130;24.746;2023-07-13T00:41:01;99511.00;;;25.43;80.37
8320;BME280;4197;42.130;24.746;2023-07-13T00:43:30;99501.47;;;25.44;80.07
8320;BME280;4197;42.130;24.746;2023-07-13T00:46:25;99496.03;;;25.41;80.03
8320;BME280;4197;42.130;24.746;2023-07-13T00:48:56;99500.19;;;25.36;79.45
8320;BME280;4197;42.130;24.746;2023-07-13T00:51:32;99501.69;;;25.28;79.94
8320;BME280;4197;42.130;24.746;2023-07-13T00:54:05;99503.03;;;25.23;79.65
8320;BME280;4197;42.130;24.746;2023-07-13T00:56:35;99503.59;;;25.18;79.51
8320;BME280;4197;42.130;24.746;2023-07-13T00:59:07;99504.28;;;25.09;80.21
8320;BME280;4197;42.130;24.746;2023-07-13T01:01:37;99508.75;;;25.07;80.02
8320;BME280;4197;42.130;24.746;2023-07-13T01:04:06;99501.09;;;25.11;80.47
8320;BME280;4197;42.130;24.746;2023-07-13T01:06:36;99494.28;;;25.12;81.00
8320;BME280;4197;42.130;24.746;2023-07-13T01:09:06;99497.63;;;25.20;79.49
8320;BME280;4197;42.130;24.746;2023-07-13T01:11:36;99487.44;;;25.17;78.39
8320;BME280;4197;42.130;24.746;2023-07-13T01:14:05;99483.53;;;25.14;78.24
8320;BME280;4197;42.130;24.746;2023-07-13T01:16:37;99489.88;;;25.14;78.77
8320;BME280;4197;42.130;24.746;2023-07-13T01:19:12;99485.97;;;25.12;79.09
8320;BME280;4197;42.130;24.746;2023-07-13T01:21:49;99485.00;;;25.06;79.47
8320;BME280;4197;42.130;24.746;2023-07-13T01:24:18;99490.38;;;25.00;80.30
8320;BME280;4197;42.130;24.746;2023-07-13T01:26:46;99483.72;;;24.98;80.50
8320;BME280;4197;42.130;24.746;2023-07-13T01:29:14;99496.16;;;24.93;80.91
8320;BME280;4197;42.130;24.746;2023-07-13T01:31:43;99487.50;;;24.91;81.53
8320;BME280;4197;42.130;24.746;2023-07-13T01:34:11;99492.63;;;24.92;82.20
8320;BME280;4197;42.130;24.746;2023-07-13T01:36:39;99494.84;;;24.85;81.93
8320;BME280;4197;42.130;24.746;2023-07-13T01:39:09;99487.25;;;24.76;83.07
8320;BME280;4197;42.130;24.746;2023-07-13T01:41:38;99491.06;;;24.69;83.30
8320;BME280;4197;42.130;24.746;2023-07-13T01:44:06;99491.63;;;24.64;83.99
8320;BME280;4197;42.130;24.746;2023-07-13T01:46:35;99483.53;;;24.57;83.58
8320;BME280;4197;42.130;24.746;2023-07-13T01:49:03;99489.66;;;24.52;84.40
8320;BME280;4197;42.130;24.746;2023-07-13T01:51:31;99492.41;;;24.52;83.91
8320;BME280;4197;42.130;24.746;2023-07-13T01:53:59;99492.00;;;24.54;85.00
8320;BME280;4197;42.130;24.746;2023-07-13T01:56:29;99500.09;;;24.48;83.99
8320;BME280;4197;42.130;24.746;2023-07-13T01:58:57;99503.31;;;24.46;83.28
8320;BME280;4197;42.130;24.746;2023-07-13T02:01:25;99498.75;;;24.53;82.81
8320;BME280;4197;42.130;24.746;2023-07-13T02:03:54;99500.75;;;24.52;82.52
8320;BME280;4197;42.130;24.746;2023-07-13T02:06:30;99506.28;;;24.52;82.11
8320;BME280;4197;42.130;24.746;2023-07-13T02:08:59;99507.72;;;24.57;81.48
8320;BME280;4197;42.130;24.746;2023-07-13T02:11:28;99514.81;;;24.58;81.88
8320;BME280;4197;42.130;24.746;2023-07-13T02:14:00;99514.50;;;24.56;81.05
8320;BME280;4197;42.130;24.746;2023-07-13T02:16:29;99508.06;;;24.59;80.22
8320;BME280;4197;42.130;24.746;2023-07-13T02:18:57;99516.56;;;24.64;79.85
8320;BME280;4197;42.130;24.746;2023-07-13T02:21:27;99520.69;;;24.60;80.22
8320;BME280;4197;42.130;24.746;2023-07-13T02:23:55;99524.22;;;24.60;80.92
8320;BME280;4197;42.130;24.746;2023-07-13T02:26:24;99520.34;;;24.58;80.68
8320;BME280;4197;42.130;24.746;2023-07-13T02:28:54;99524.47;;;24.53;80.85
8320;BME280;4197;42.130;24.746;2023-07-13T02:31:22;99523.03;;;24.48;81.44
8320;BME280;4197;42.130;24.746;2023-07-13T02:33:50;99526.38;;;24.43;82.15
8320;BME280;4197;42.130;24.746;2023-07-13T02:36:18;99523.81;;;24.36;82.97
8320;BME280;4197;42.130;24.746;2023-07-13T02:38:49;99532.34;;;24.29;83.97
8320;BME280;4197;42.130;24.746;2023-07-13T02:41:17;99525.16;;;24.19;84.50
8320;BME280;4197;42.130;24.746;2023-07-13T02:43:46;99528.06;;;24.15;84.90
8320;BME280;4197;42.130;24.746;2023-07-13T02:46:15;99524.84;;;24.17;85.72
8320;BME280;4197;42.130;24.746;2023-07-13T02:48:43;99519.09;;;24.11;85.00
8320;BME280;4197;42.130;24.746;2023-07-13T02:51:11;99516.09;;;24.06;84.90
8320;BME280;4197;42.130;24.746;2023-07-13T02:53:40;99534.69;;;24.05;85.28
8320;BME280;4197;42.130;24.746;2023-07-13T02:56:08;99537.03;;;24.07;85.09
8320;BME280;4197;42.130;24.746;2023-07-13T02:58:36;99536.34;;;24.02;85.60
8320;BME280;4197;42.130;24.746;2023-07-13T03:01:09;99537.03;;;24.07;84.62
8320;BME280;4197;42.130;24.746;2023-07-13T03:03:39;99535.94;;;24.04;84.28
8320;BME280;4197;42.130;24.746;2023-07-13T03:06:07;99533.81;;;24.08;83.69
8320;BME280;4197;42.130;24.746;2023-07-13T03:08:36;99532.47;;;24.13;83.57
8320;BME280;4197;42.130;24.746;2023-07-13T03:11:07;99536.03;;;24.13;83.04
8320;BME280;4197;42.130;24.746;2023-07-13T03:13:35;99533.72;;;24.12;82.55
8320;BME280;4197;42.130;24.746;2023-07-13T03:16:04;99538.16;;;24.09;83.31
8320;BME280;4197;42.130;24.746;2023-07-13T03:18:33;99539.13;;;24.02;83.14
8320;BME280;4197;42.130;24.746;2023-07-13T03:21:04;99539.81;;;24.07;81.77
8320;BME280;4197;42.130;24.746;2023-07-13T03:23:32;99526.50;;;24.14;80.64
8320;BME280;4197;42.130;24.746;2023-07-13T03:26:02;99525.84;;;24.23;79.88
8320;BME280;4197;42.130;24.746;2023-07-13T03:28:31;99526.59;;;24.36;79.57
8320;BME280;4197;42.130;24.746;2023-07-13T03:31:01;99529.03;;;24.47;79.90
8320;BME280;4197;42.130;24.746;2023-07-13T03:33:29;99524.59;;;24.49;80.08
8320;BME280;4197;42.130;24.746;2023-07-13T03:35:58;99519.72;;;24.54;80.00
8320;BME280;4197;42.130;24.746;2023-07-13T03:38:28;99523.03;;;24.61;79.40
8320;BME280;4197;42.130;24.746;2023-07-13T03:40:56;99522.97;;;24.74;77.51
8320;BME280;4197;42.130;24.746;2023-07-13T03:43:24;99523.94;;;24.80;76.30
8320;BME280;4197;42.130;24.746;2023-07-13T03:45:53;99522.22;;;24.96;75.25
8320;BME280;4197;42.130;24.746;2023-07-13T03:48:21;99527.41;;;25.06;74.42
8320;BME280;4197;42.130;24.746;2023-07-13T03:50:49;99520.81;;;25.13;74.66
8320;BME280;4197;42.130;24.746;2023-07-13T03:53:18;99525.22;;;25.23;74.76
8320;BME280;4197;42.130;24.746;2023-07-13T03:55:47;99525.94;;;25.36;73.55
8320;BME280;4197;42.130;24.746;2023-07-13T03:58:28;99538.69;;;25.56;72.26
8320;BME280;4197;42.130;24.746;2023-07-13T04:00:58;99533.41;;;25.80;69.71
8320;BME280;4197;42.130;24.746;2023-07-13T04:03:26;99535.50;;;25.89;69.07
8320;BME280;4197;42.130;24.746;2023-07-13T04:05:55;99540.13;;;25.92;68.98
8320;BME280;4197;42.130;24.746;2023-07-13T04:08:27;99535.78;;;25.91;68.56
8320;BME280;4197;42.130;24.746;2023-07-13T04:10:58;99535.19;;;25.87;68.69
8320;BME280;4197;42.130;24.746;2023-07-13T04:13:26;99547.00;;;26.18;67.28
8320;BME280;4197;42.130;24.746;2023-07-13T04:15:55;99532.53;;;26.23;67.32
8320;BME280;4197;42.130;24.746;2023-07-13T04:18:24;99529.94;;;26.38;66.67
8320;BME280;4197;42.130;24.746;2023-07-13T04:20:52;99540.03;;;26.54;65.47
8320;BME280;4197;42.130;24.746;2023-07-13T04:23:20;99546.56;;;26.69;64.32
8320;BME280;4197;42.130;24.746;2023-07-13T04:25:51;99548.72;;;26.75;64.24
8320;BME280;4197;42.130;24.746;2023-07-13T04:28:22;99548.56;;;26.78;64.36
8320;BME280;4197;42.130;24.746;2023-07-13T04:30:51;99551.97;;;26.91;63.80
8320;BME280;4197;42.130;24.746;2023-07-13T04:33:20;99545.94;;;26.75;64.73
8320;BME280;4197;42.130;24.746;2023-07-13T04:35:49;99552.59;;;26.86;64.98
8320;BME280;4197;42.130;24.746;2023-07-13T04:38:22;99559.84;;;26.93;64.31
8320;BME280;4197;42.130;24.746;2023-07-13T04:40:51;99560.63;;;27.03;63.14
8320;BME280;4197;42.130;24.746;2023-07-13T04:43:19;99553.06;;;27.22;62.66
8320;BME280;4197;42.130;24.746;2023-07-13T04:45:50;99542.84;;;27.28;61.99
8320;BME280;4197;42.130;24.746;2023-07-13T04:48:18;99559.34;;;27.59;60.58
8320;BME280;4197;42.130;24.746;2023-07-13T04:50:48;99557.63;;;27.80;59.02
8320;BME280;4197;42.130;24.746;2023-07-13T04:53:22;99555.38;;;28.02;57.64
8320;BME280;4197;42.130;24.746;2023-07-13T04:55:50;99559.94;;;28.15;56.89
8320;BME280;4197;42.130;24.746;2023-07-13T04:58:20;99560.72;;;28.15;56.88
8320;BME280;4197;42.130;24.746;2023-07-13T05:00:51;99558.13;;;28.36;55.42
8320;BME280;4197;42.130;24.746;2023-07-13T05:03:19;99565.25;;;28.37;55.02
8320;BME280;4197;42.130;24.746;2023-07-13T05:05:55;99561.97;;;28.48;54.73
8320;BME280;4197;42.130;24.746;2023-07-13T05:08:24;99565.19;;;28.55;54.90
8320;BME280;4197;42.130;24.746;2023-07-13T05:10:53;99570.22;;;28.66;55.34
8320;BME280;4197;42.130;24.746;2023-07-13T05:13:21;99567.59;;;28.86;54.65
8320;BME280;4197;42.130;24.746;2023-07-13T05:15:59;99568.34;;;29.11;53.10
8320;BME280;4197;42.130;24.746;2023-07-13T05:18:29;99566.75;;;28.95;53.60
8320;BME280;4197;42.130;24.746;2023-07-13T05:20:59;99568.19;;;28.90;53.99
8320;BME280;4197;42.130;24.746;2023-07-13T05:23:28;99576.28;;;28.88;54.06
8320;BME280;4197;42.130;24.746;2023-07-13T05:25:57;99574.75;;;29.02;53.51
8320;BME280;4197;42.130;24.746;2023-07-13T05:28:25;99573.50;;;29.27;52.42
8320;BME280;4197;42.130;24.746;2023-07-13T05:30:55;99576.78;;;29.41;52.24
8320;BME280;4197;42.130;24.746;2023-07-13T05:33:25;99569.94;;;29.42;52.61
8320;BME280;4197;42.130;24.746;2023-07-13T05:35:54;99566.97;;;29.75;50.15
8320;BME280;4197;42.130;24.746;2023-07-13T05:38:22;99574.59;;;29.74;50.74
8320;BME280;4197;42.130;24.746;2023-07-13T05:40:54;99572.53;;;29.90;50.33
8320;BME280;4197;42.130;24.746;2023-07-13T05:43:22;99576.97;;;29.96;49.95
8320;BME280;4197;42.130;24.746;2023-07-13T05:45:54;99583.44;;;30.02;49.93
8320;BME280;4197;42.130;24.746;2023-07-13T05:48:24;99577.44;;;30.10;49.84
8320;BME280;4197;42.130;24.746;2023-07-13T05:50:52;99570.09;;;30.27;49.14
8320;BME280;4197;42.130;24.746;2023-07-13T05:53:21;99563.16;;;30.22;49.67
8320;BME280;4197;42.130;24.746;2023-07-13T05:55:49;99573.06;;;30.23;49.81
8320;BME280;4197;42.130;24.746;2023-07-13T05:58:20;99571.22;;;30.20;50.05
8320;BME280;4197;42.130;24.746;2023-07-13T06:00:48;99576.31;;;30.37;50.29
8320;BME280;4197;42.130;24.746;2023-07-13T06:03:27;99576.22;;;30.46;49.82
8320;BME280;4197;42.130;24.746;2023-07-13T06:05:56;99566.00;;;30.43;49.56
8320;BME280;4197;42.130;24.746;2023-07-13T06:08:24;99573.75;;;30.54;49.74
8320;BME280;4197;42.130;24.746;2023-07-13T06:10:52;99576.50;;;30.89;49.12
8320;BME280;4197;42.130;24.746;2023-07-13T06:13:20;99580.53;;;30.67;48.90
8320;BME280;4197;42.130;24.746;2023-07-13T06:15:49;99586.78;;;30.98;47.57
8320;BME280;4197;42.130;24.746;2023-07-13T06:18:17;99580.78;;;31.31;45.31
8320;BME280;4197;42.130;24.746;2023-07-13T06:20:47;99575.94;;;31.52;44.98
8320;BME280;4197;42.130;24.746;2023-07-13T06:23:15;99572.94;;;31.35;45.41
8320;BME280;4197;42.130;24.746;2023-07-13T06:25:44;99575.34;;;31.22;46.03
8320;BME280;4197;42.130;24.746;2023-07-13T06:28:12;99572.72;;;31.13;44.37
8320;BME280;4197;42.130;24.746;2023-07-13T06:30:40;99569.22;;;30.97;45.23
8320;BME280;4197;42.130;24.746;2023-07-13T06:33:09;99571.13;;;30.85;45.99
8320;BME280;4197;42.130;24.746;2023-07-13T06:35:37;99575.75;;;30.88;45.38
8320;BME280;4197;42.130;24.746;2023-07-13T06:38:07;99568.88;;;30.89;45.20
8320;BME280;4197;42.130;24.746;2023-07-13T06:40:35;99566.63;;;30.73;45.76
8320;BME280;4197;42.130;24.746;2023-07-13T06:43:03;99560.47;;;30.69;46.08
8320;BME280;4197;42.130;24.746;2023-07-13T06:45:39;99561.88;;;30.79;45.04
8320;BME280;4197;42.130;24.746;2023-07-13T06:48:08;99559.13;;;30.64;45.61
8320;BME280;4197;42.130;24.746;2023-07-13T06:50:36;99556.34;;;30.64;45.59
8320;BME280;4197;42.130;24.746;2023-07-13T06:53:06;99552.91;;;30.55;45.63
8320;BME280;4197;42.130;24.746;2023-07-13T06:55:34;99549.69;;;30.62;45.70
8320;BME280;4197;42.130;24.746;2023-07-13T06:58:03;99560.13;;;30.61;46.03
8320;BME280;4197;42.130;24.746;2023-07-13T07:00:31;99564.81;;;30.70;45.93
8320;BME280;4197;42.130;24.746;2023-07-13T07:03:00;99553.28;;;30.83;44.99
8320;BME280;4197;42.130;24.746;2023-07-13T07:05:28;99557.53;;;30.78;45.63
8320;BME280;4197;42.130;24.746;2023-07-13T07:07:56;99563.22;;;30.84;45.35
8320;BME280;4197;42.130;24.746;2023-07-13T07:10:28;99557.19;;;30.91;45.09
8320;BME280;4197;42.130;24.746;2023-07-13T07:12:57;99565.72;;;31.02;44.94
8320;BME280;4197;42.130;24.746;2023-07-13T07:15:26;99556.22;;;31.20;44.41
8320;BME280;4197;42.130;24.746;2023-07-13T07:17:55;99555.03;;;31.27;44.19
8320;BME280;4197;42.130;24.746;2023-07-13T07:20:23;99557.97;;;31.38;43.71
8320;BME280;4197;42.130;24.746;2023-07-13T07:22:52;99560.59;;;31.47;43.50
8320;BME280;4197;42.130;24.746;2023-07-13T07:25:20;99558.13;;;31.55;43.28
8320;BME280;4197;42.130;24.746;2023-07-13T07:27:50;99547.19;;;31.57;43.13
8320;BME280;4197;42.130;24.746;2023-07-13T07:30:21;99548.50;;;31.62;43.45
8320;BME280;4197;42.130;24.746;2023-07-13T07:32:52;99542.88;;;31.62;44.47
8320;BME280;4197;42.130;24.746;2023-07-13T07:35:23;99550.09;;;31.68;44.11
8320;BME280;4197;42.130;24.746;2023-07-13T07:37:52;99552.75;;;31.83;42.86
8320;BME280;4197;42.130;24.746;2023-07-13T07:40:20;99550.75;;;31.89;41.93
8320;BME280;4197;42.130;24.746;2023-07-13T07:42:53;99545.09;;;31.84;42.49
8320;BME280;4197;42.130;24.746;2023-07-13T07:45:21;99546.66;;;31.85;41.82
8320;BME280;4197;42.130;24.746;2023-07-13T07:47:50;99544.44;;;31.94;42.08
8320;BME280;4197;42.130;24.746;2023-07-13T07:50:18;99543.75;;;32.05;42.40
8320;BME280;4197;42.130;24.746;2023-07-13T07:52:46;99542.06;;;32.19;42.46
8320;BME280;4197;42.130;24.746;2023-07-13T07:55:15;99550.53;;;32.30;41.74
8320;BME280;4197;42.130;24.746;2023-07-13T07:57:46;99545.97;;;32.38;41.15
8320;BME280;4197;42.130;24.746;2023-07-13T08:00:19;99534.03;;;32.43;42.14
8320;BME280;4197;42.130;24.746;2023-07-13T08:02:50;99541.25;;;32.61;41.72
8320;BME280;4197;42.130;24.746;2023-07-13T08:05:21;99532.84;;;32.61;41.88
8320;BME280;4197;42.130;24.746;2023-07-13T08:08:02;99529.28;;;32.66;40.82
8320;BME280;4197;42.130;24.746;2023-07-13T08:10:30;99530.06;;;32.67;41.15
8320;BME280;4197;42.130;24.746;2023-07-13T08:12:58;99521.91;;;32.69;41.92
8320;BME280;4197;42.130;24.746;2023-07-13T08:15:31;99524.50;;;32.89;41.28
8320;BME280;4197;42.130;24.746;2023-07-13T08:17:59;99523.06;;;33.11;40.78
8320;BME280;4197;42.130;24.746;2023-07-13T08:20:27;99522.31;;;33.33;40.10
8320;BME280;4197;42.130;24.746;2023-07-13T08:22:56;99521.06;;;33.40;39.27
8320;BME280;4197;42.130;24.746;2023-07-13T08:25:25;99519.78;;;33.46;38.30
8320;BME280;4197;42.130;24.746;2023-07-13T08:27:53;99514.66;;;33.39;38.05
8320;BME280;4197;42.130;24.746;2023-07-13T08:30:21;99522.31;;;33.39;38.30
8320;BME280;4197;42.130;24.746;2023-07-13T08:32:53;99511.84;;;33.50;38.11
8320;BME280;4197;42.130;24.746;2023-07-13T08:35:21;99513.91;;;33.50;38.00
8320;BME280;4197;42.130;24.746;2023-07-13T08:37:49;99515.97;;;33.55;37.83
8320;BME280;4197;42.130;24.746;2023-07-13T08:40:19;99509.28;;;33.47;38.78
8320;BME280;4197;42.130;24.746;2023-07-13T08:42:54;99508.06;;;33.59;38.34
8320;BME280;4197;42.130;24.746;2023-07-13T08:45:25;99514.16;;;33.86;37.47
8320;BME280;4197;42.130;24.746;2023-07-13T08:48:02;99502.13;;;33.96;36.94
8320;BME280;4197;42.130;24.746;2023-07-13T08:50:35;99505.44;;;34.01;37.19
8320;BME280;4197;42.130;24.746;2023-07-13T08:53:32;99495.72;;;34.13;37.19
8320;BME280;4197;42.130;24.746;2023-07-13T08:56:05;99492.41;;;34.14;36.95
8320;BME280;4197;42.130;24.746;2023-07-13T08:58:39;99494.13;;;34.29;36.84
8320;BME280;4197;42.130;24.746;2023-07-13T09:01:15;99495.06;;;34.59;36.36
8320;BME280;4197;42.130;24.746;2023-07-13T09:03:52;99500.13;;;34.67;35.38
8320;BME280;4197;42.130;24.746;2023-07-13T09:06:31;99498.28;;;34.75;35.32
8320;BME280;4197;42.130;24.746;2023-07-13T09:09:04;99490.03;;;34.88;34.83
8320;BME280;4197;42.130;24.746;2023-07-13T09:11:46;99490.81;;;34.83;35.33
8320;BME280;4197;42.130;24.746;2023-07-13T09:14:34;99489.81;;;34.80;34.47
8320;BME280;4197;42.130;24.746;2023-07-13T09:17:12;99486.41;;;34.93;34.53
8320;BME280;4197;42.130;24.746;2023-07-13T09:19:47;99482.22;;;35.05;33.19
8320;BME280;4197;42.130;24.746;2023-07-13T09:22:19;99479.44;;;35.00;33.25
8320;BME280;4197;42.130;24.746;2023-07-13T09:24:54;99472.41;;;34.82;33.53
8320;BME280;4197;42.130;24.746;2023-07-13T09:27:29;99469.22;;;34.97;34.31
8320;BME280;4197;42.130;24.746;2023-07-13T09:30:20;99466.22;;;35.25;33.21
8320;BME280;4197;42.130;24.746;2023-07-13T09:32:52;99459.91;;;35.43;33.34
8320;BME280;4197;42.130;24.746;2023-07-13T09:35:25;99451.09;;;35.52;32.57
8320;BME280;4197;42.130;24.746;2023-07-13T09:38:03;99440.22;;;35.68;32.37
8320;BME280;4197;42.130;24.746;2023-07-13T09:40:40;99437.69;;;35.89;32.16
8320;BME280;4197;42.130;24.746;2023-07-13T09:43:13;99437.28;;;36.04;31.38
8320;BME280;4197;42.130;24.746;2023-07-13T09:45:45;99431.28;;;36.13;30.71
8320;BME280;4197;42.130;24.746;2023-07-13T09:48:15;99420.75;;;35.89;29.86
8320;BME280;4197;42.130;24.746;2023-07-13T09:50:45;99424.81;;;35.93;30.19
8320;BME280;4197;42.130;24.746;2023-07-13T09:53:14;99420.06;;;35.83;30.08
8320;BME280;4197;42.130;24.746;2023-07-13T09:55:44;99411.88;;;36.04;30.50
8320;BME280;4197;42.130;24.746;2023-07-13T09:58:23;99416.78;;;36.22;30.19
8320;BME280;4197;42.130;24.746;2023-07-13T10:00:56;99414.72;;;36.41;30.30
8320;BME280;4197;42.130;24.746;2023-07-13T10:03:27;99398.66;;;36.55;28.92
8320;BME280;4197;42.130;24.746;2023-07-13T10:06:03;99394.22;;;36.60;29.22
8320;BME280;4197;42.130;24.746;2023-07-13T10:08:37;99395.38;;;36.70;28.99
8320;BME280;4197;42.130;24.746;2023-07-13T10:11:18;99393.25;;;36.90;29.68
8320;BME280;4197;42.130;24.746;2023-07-13T10:13:53;99393.91;;;36.96;29.57
8320;BME280;4197;42.130;24.746;2023-07-13T10:16:23;99390.00;;;36.99;28.22
8320;BME280;4197;42.130;24.746;2023-07-13T10:18:55;99387.28;;;36.93;28.59
8320;BME280;4197;42.130;24.746;2023-07-13T10:21:32;99384.28;;;37.04;28.42
8320;BME280;4197;42.130;24.746;2023-07-13T10:24:16;99385.66;;;37.17;29.94
8320;BME280;4197;42.130;24.746;2023-07-13T10:26:49;99385.63;;;36.84;28.94
8320;BME280;4197;42.130;24.746;2023-07-13T10:29:21;99389.53;;;36.81;30.32
8320;BME280;4197;42.130;24.746;2023-07-13T10:31:51;99385.56;;;36.71;29.81
8320;BME280;4197;42.130;24.746;2023-07-13T10:34:20;99382.75;;;36.52;30.43
8320;BME280;4197;42.130;24.746;2023-07-13T10:36:51;99383.78;;;36.87;29.58
8320;BME280;4197;42.130;24.746;2023-07-13T10:39:22;99377.19;;;36.98;26.80
8320;BME280;4197;42.130;24.746;2023-07-13T10:41:54;99366.63;;;37.17;25.33
8320;BME280;4197;42.130;24.746;2023-07-13T10:44:25;99360.66;;;37.34;25.59
8320;BME280;4197;42.130;24.746;2023-07-13T10:46:58;99361.19;;;37.33;25.33
8320;BME280;4197;42.130;24.746;2023-07-13T10:49:27;99360.34;;;37.51;25.16
8320;BME280;4197;42.130;24.746;2023-07-13T10:51:58;99353.94;;;37.50;24.97
8320;BME280;4197;42.130;24.746;2023-07-13T10:54:28;99350.34;;;37.63;24.34
8320;BME280;4197;42.130;24.746;2023-07-13T10:57:15;99360.13;;;37.76;24.50
8320;BME280;4197;42.130;24.746;2023-07-13T10:59:47;99356.09;;;37.71;24.61
8320;BME280;4197;42.130;24.746;2023-07-13T11:02:25;99352.75;;;37.72;23.96
8320;BME280;4197;42.130;24.746;2023-07-13T11:04:55;99343.69;;;37.74;24.15
8320;BME280;4197;42.130;24.746;2023-07-13T11:07:28;99350.66;;;37.86;24.58
8320;BME280;4197;42.130;24.746;2023-07-13T11:09:58;99350.31;;;38.03;24.03
8320;BME280;4197;42.130;24.746;2023-07-13T11:12:51;99341.50;;;37.80;24.39
8320;BME280;4197;42.130;24.746;2023-07-13T11:15:31;99336.63;;;37.67;24.44
8320;BME280;4197;42.130;24.746;2023-07-13T11:18:03;99329.13;;;37.83;24.44
8320;BME280;4197;42.130;24.746;2023-07-13T11:20:38;99334.19;;;38.11;24.01
8320;BME280;4197;42.130;24.746;2023-07-13T11:23:28;99335.94;;;38.14;23.21
8320;BME280;4197;42.130;24.746;2023-07-13T11:25:58;99329.66;;;37.95;23.74
8320;BME280;4197;42.130;24.746;2023-07-13T11:28:30;99326.13;;;38.02;23.58
8320;BME280;4197;42.130;24.746;2023-07-13T11:31:12;99329.69;;;38.16;23.91
8320;BME280;4197;42.130;24.746;2023-07-13T11:33:51;99329.25;;;38.25;23.49
8320;BME280;4197;42.130;24.746;2023-07-13T11:36:23;99319.28;;;38.45;23.21
8320;BME280;4197;42.130;24.746;2023-07-13T11:38:59;99320.13;;;38.40;23.20
8320;BME280;4197;42.130;24.746;2023-07-13T11:41:31;99321.41;;;38.52;22.82
8320;BME280;4197;42.130;24.746;2023-07-13T11:44:08;99325.56;;;38.51;22.64
8320;BME280;4197;42.130;24.746;2023-07-13T11:46:39;99319.50;;;38.47;23.04
8320;BME280;4197;42.130;24.746;2023-07-13T11:49:15;99316.44;;;38.45;23.23
8320;BME280;4197;42.130;24.746;2023-07-13T11:51:44;99321.22;;;38.50;23.49
8320;BME280;4197;42.130;24.746;2023-07-13T11:54:24;99310.50;;;38.56;22.92
8320;BME280;4197;42.130;24.746;2023-07-13T11:56:57;99312.66;;;38.64;23.59
8320;BME280;4197;42.130;24.746;2023-07-13T11:59:29;99305.03;;;38.79;23.40
8320;BME280;4197;42.130;24.746;2023-07-13T12:01:59;99311.63;;;38.95;22.54
8320;BME280;4197;42.130;24.746;2023-07-13T12:04:31;99304.16;;;39.06;21.30
8320;BME280;4197;42.130;24.746;2023-07-13T12:07:05;99292.44;;;39.09;21.82
8320;BME280;4197;42.130;24.746;2023-07-13T12:09:37;99281.16;;;39.17;21.51
8320;BME280;4197;42.130;24.746;2023-07-13T12:12:11;99274.59;;;39.30;21.33
8320;BME280;4197;42.130;24.746;2023-07-13T12:14:41;99275.59;;;39.32;20.73
8320;BME280;4197;42.130;24.746;2023-07-13T12:17:16;99269.28;;;39.26;21.70
8320;BME280;4197;42.130;24.746;2023-07-13T12:19:47;99267.63;;;39.31;21.33
8320;BME280;4197;42.130;24.746;2023-07-13T12:22:17;99265.19;;;39.35;21.69
8320;BME280;4197;42.130;24.746;2023-07-13T12:24:48;99266.22;;;39.45;21.27
8320;BME280;4197;42.130;24.746;2023-07-13T12:27:21;99263.53;;;39.39;21.38
8320;BME280;4197;42.130;24.746;2023-07-13T12:29:51;99257.25;;;39.33;20.57
8320;BME280;4197;42.130;24.746;2023-07-13T12:32:20;99257.81;;;39.32;20.54
8320;BME280;4197;42.130;24.746;2023-07-13T12:34:51;99245.47;;;39.29;21.68
8320;BME280;4197;42.130;24.746;2023-07-13T12:37:20;99253.19;;;39.21;23.01
8320;BME280;4197;42.130;24.746;2023-07-13T12:39:49;99248.56;;;39.02;23.83
8320;BME280;4197;42.130;24.746;2023-07-13T12:42:20;99235.09;;;38.95;23.59
8320;BME280;4197;42.130;24.746;2023-07-13T12:44:53;99240.66;;;39.09;23.56
8320;BME280;4197;42.130;24.746;2023-07-13T12:47:22;99230.75;;;39.31;23.79
8320;BME280;4197;42.130;24.746;2023-07-13T12:49:56;99229.38;;;39.53;23.84
8320;BME280;4197;42.130;24.746;2023-07-13T12:52:29;99225.59;;;39.58;24.14
8320;BME280;4197;42.130;24.746;2023-07-13T12:55:06;99231.91;;;39.72;23.74
8320;BME280;4197;42.130;24.746;2023-07-13T12:57:44;99229.31;;;39.89;23.53
8320;BME280;4197;42.130;24.746;2023-07-13T13:00:23;99227.44;;;39.91;22.69
8320;BME280;4197;42.130;24.746;2023-07-13T13:02:54;99224.59;;;39.91;21.93
8320;BME280;4197;42.130;24.746;2023-07-13T13:05:43;99219.84;;;39.86;22.67
8320;BME280;4197;42.130;24.746;2023-07-13T13:08:12;99221.25;;;39.64;22.62
8320;BME280;4197;42.130;24.746;2023-07-13T13:10:42;99221.22;;;39.57;22.74
8320;BME280;4197;42.130;24.746;2023-07-13T13:13:10;99206.66;;;39.53;23.36
8320;BME280;4197;42.130;24.746;2023-07-13T13:15:39;99210.28;;;39.61;23.06
8320;BME280;4197;42.130;24.746;2023-07-13T13:18:15;99220.53;;;39.72;22.60
8320;BME280;4197;42.130;24.746;2023-07-13T13:20:45;99218.88;;;39.84;22.92
8320;BME280;4197;42.130;24.746;2023-07-13T13:23:19;99211.31;;;39.79;22.35
8320;BME280;4197;42.130;24.746;2023-07-13T13:25:50;99209.63;;;39.83;22.18
8320;BME280;4197;42.130;24.746;2023-07-13T13:28:20;99198.09;;;39.89;22.11
8320;BME280;4197;42.130;24.746;2023-07-13T13:30:50;99200.53;;;39.85;21.79